Time;durP1;ratioP1;P1;durP2;ratioP2;P2;SDS_P1;SDS_P2;PMS_P1;PMS_P2;Temp;Humidity;BMP_temperature;BMP_pressure;BME280_temperature;BME280_humidity;BME280_pressure;Samples;Min_cycle;Max_cycle;Signal;HPM_P1;HPM_P2
2022/06/30 00:00:50;;;;;;;9.10;4.32;;;25.50;99.90;;;;;;5054885;28;20066;-66
2022/06/30 00:03:16;;;;;;;10.05;5.63;;;25.40;99.90;;;;;;5054842;28;20478;-66
2022/06/30 00:05:43;;;;;;;12.93;6.05;;;25.40;99.90;;;;;;5054319;28;20532;-66
2022/06/30 00:08:10;;;;;;;20.05;6.03;;;25.40;99.90;;;;;;5054560;28;20036;-66
2022/06/30 00:10:37;;;;;;;12.98;5.88;;;25.50;99.90;;;;;;5054835;28;20029;-65
2022/06/30 00:13:06;;;;;;;15.00;5.57;;;25.50;99.90;;;;;;5054682;28;20075;-64
2022/06/30 00:15:35;;;;;;;12.25;6.20;;;25.50;99.90;;;;;;5054991;28;20028;-65
2022/06/30 00:18:02;;;;;;;15.63;5.15;;;25.50;99.90;;;;;;5054726;28;20440;-65
2022/06/30 00:20:29;;;;;;;13.73;6.13;;;25.50;99.90;;;;;;5054662;28;20023;-64
2022/06/30 00:22:55;;;;;;;15.35;5.07;;;25.40;99.90;;;;;;5054531;28;20028;-64
2022/06/30 00:25:22;;;;;;;15.50;5.57;;;25.50;99.90;;;;;;5055040;28;20028;-66
2022/06/30 00:27:49;;;;;;;17.25;6.22;;;25.50;99.90;;;;;;5054510;28;20104;-66
2022/06/30 00:30:15;;;;;;;16.25;5.45;;;25.50;99.90;;;;;;5054639;28;20029;-66
2022/06/30 00:32:42;;;;;;;22.92;11.20;;;25.50;99.90;;;;;;5051195;28;20432;-66
2022/06/30 00:35:09;;;;;;;19.50;9.23;;;25.50;99.90;;;;;;5054060;28;20513;-66
2022/06/30 00:37:36;;;;;;;30.13;17.98;;;25.50;99.90;;;;;;5054486;28;20111;-66
2022/06/30 00:40:03;;;;;;;20.58;10.80;;;25.50;99.90;;;;;;5052741;28;20028;-66
2022/06/30 00:42:30;;;;;;;15.35;7.07;;;25.60;99.90;;;;;;5052212;28;20068;-66
2022/06/30 00:44:57;;;;;;;14.50;5.85;;;25.60;99.90;;;;;;5050457;28;20027;-66
2022/06/30 00:47:24;;;;;;;12.07;5.43;;;25.60;99.90;;;;;;5053032;28;20374;-66
2022/06/30 00:49:51;;;;;;;12.80;4.95;;;25.60;99.90;;;;;;5052907;28;20025;-66
2022/06/30 00:52:20;;;;;;;24.52;15.23;;;25.60;99.90;;;;;;5050163;28;20017;-68
2022/06/30 00:54:48;;;;;;;29.10;11.85;;;25.60;99.90;;;;;;5053472;28;20100;-66
2022/06/30 00:57:16;;;;;;;52.78;31.63;;;25.60;99.90;;;;;;5053944;28;20108;-67
2022/06/30 00:59:48;;;;;;;46.45;29.13;;;25.70;99.90;;;;;;5053896;28;20025;-67
2022/06/30 01:02:17;;;;;;;168.13;101.40;;;25.70;99.90;;;;;;5054084;28;20033;-66
2022/06/30 01:04:46;;;;;;;56.10;32.80;;;25.60;99.90;;;;;;5053735;28;20033;-67
2022/06/30 01:07:16;;;;;;;65.78;36.80;;;25.60;99.90;;;;;;5053941;28;20025;-67
2022/06/30 01:15:06;;;;;;;14.75;6.00;;;25.60;99.90;;;;;;5053626;28;20428;-66
2022/06/30 01:17:32;;;;;;;242.70;132.65;;;25.60;99.90;;;;;;5053702;28;20021;-67
2022/06/30 01:20:00;;;;;;;179.45;99.07;;;25.60;99.90;;;;;;5053567;28;20013;-67
2022/06/30 01:22:27;;;;;;;96.82;60.25;;;25.70;99.90;;;;;;5053486;28;20032;-67
2022/06/30 01:24:53;;;;;;;20.50;9.55;;;25.80;99.90;;;;;;5053587;28;20021;-66
2022/06/30 01:27:20;;;;;;;13.25;7.07;;;25.80;99.90;;;;;;5053388;28;20122;-67
2022/06/30 01:29:48;;;;;;;21.88;10.25;;;25.90;99.90;;;;;;5053386;28;20535;-67
2022/06/30 01:32:14;;;;;;;90.97;55.85;;;26.00;99.90;;;;;;5053131;28;20666;-67
2022/06/30 01:34:41;;;;;;;44.78;23.73;;;26.00;99.90;;;;;;5053284;28;20033;-67
2022/06/30 01:37:08;;;;;;;68.68;36.28;;;26.10;99.90;;;;;;5053249;28;20096;-67
2022/06/30 01:39:35;;;;;;;45.22;27.05;;;26.10;99.90;;;;;;5053454;28;20031;-67
2022/06/30 01:42:02;;;;;;;31.65;12.38;;;26.10;99.90;;;;;;5053392;28;20470;-67
2022/06/30 01:44:29;;;;;;;25.30;14.60;;;26.10;99.90;;;;;;5053155;28;20049;-67
2022/06/30 01:46:56;;;;;;;47.80;28.83;;;26.10;99.90;;;;;;5053189;28;20104;-67
2022/06/30 01:49:23;;;;;;;12.73;6.70;;;26.10;99.90;;;;;;5053138;28;20025;-67
2022/06/30 01:51:49;;;;;;;35.83;21.83;;;26.10;99.90;;;;;;5053004;28;20021;-67
2022/06/30 01:54:16;;;;;;;29.55;15.95;;;26.10;99.90;;;;;;5053163;28;20385;-64
2022/06/30 01:56:43;;;;;;;18.05;10.50;;;26.10;99.90;;;;;;5052974;28;20021;-64
2022/06/30 01:59:13;;;;;;;16.80;7.38;;;26.10;99.90;;;;;;5053388;28;20038;-64
2022/06/30 02:01:40;;;;;;;24.58;12.82;;;26.10;99.90;;;;;;5049139;28;20466;-64
2022/06/30 02:06:53;;;;;;;16.88;6.63;;;26.20;99.90;;;;;;5053152;28;20029;-65
2022/06/30 02:09:20;;;;;;;16.63;5.00;;;26.30;99.90;;;;;;5053645;28;20033;-64
2022/06/30 02:11:46;;;;;;;10.13;3.75;;;26.30;99.90;;;;;;5047677;28;20424;-64
2022/06/30 02:14:13;;;;;;;8.88;4.43;;;26.40;99.90;;;;;;5051670;28;20028;-64
2022/06/30 02:16:40;;;;;;;15.07;3.83;;;26.30;99.90;;;;;;5053990;28;20061;-65
2022/06/30 02:19:06;;;;;;;14.48;4.53;;;26.40;99.90;;;;;;5053453;28;20021;-64
2022/06/30 02:21:33;;;;;;;17.27;7.18;;;26.40;99.90;;;;;;5053657;28;20032;-64
2022/06/30 02:24:00;;;;;;;31.27;15.60;;;26.50;99.90;;;;;;5053692;28;20017;-64
2022/06/30 02:26:26;;;;;;;28.52;16.33;;;26.50;99.90;;;;;;5038472;28;20288;-64
2022/06/30 02:28:53;;;;;;;28.23;18.23;;;26.60;99.90;;;;;;5049564;28;20028;-65
2022/06/30 02:31:20;;;;;;;56.90;37.35;;;26.50;99.90;;;;;;5057125;28;20028;-64
2022/06/30 02:33:47;;;;;;;30.00;19.45;;;26.70;99.90;;;;;;5047174;28;20022;-65
2022/06/30 02:36:16;;;;;;;50.42;30.25;;;26.90;99.90;;;;;;5055091;28;20056;-64
2022/06/30 02:38:42;;;;;;;35.65;18.30;;;26.90;99.90;;;;;;5050689;28;20381;-65
2022/06/30 02:41:09;;;;;;;25.02;12.18;;;26.90;99.90;;;;;;5057513;28;20056;-62
2022/06/30 02:43:36;;;;;;;20.20;7.45;;;27.00;99.90;;;;;;5056281;28;20078;-64
2022/06/30 02:46:02;;;;;;;18.08;6.90;;;27.00;99.90;;;;;;5056953;28;20466;-63
2022/06/30 02:48:29;;;;;;;20.45;8.00;;;27.00;99.90;;;;;;5056911;28;20036;-63
2022/06/30 02:50:56;;;;;;;24.35;8.55;;;27.00;99.90;;;;;;5038443;28;20116;-64
2022/06/30 02:53:23;;;;;;;17.10;6.40;;;27.20;99.90;;;;;;5056358;28;20144;-64
2022/06/30 02:55:50;;;;;;;16.83;7.55;;;27.30;99.90;;;;;;5056095;28;20097;-64
2022/06/30 02:58:17;;;;;;;19.83;6.05;;;27.30;99.90;;;;;;5055302;28;20070;-65
2022/06/30 03:00:44;;;;;;;20.15;4.60;;;27.40;99.90;;;;;;5047841;28;20021;-66
2022/06/30 03:03:11;;;;;;;15.27;4.63;;;27.40;99.90;;;;;;5037029;28;20112;-65
2022/06/30 03:05:38;;;;;;;11.65;5.55;;;27.40;99.90;;;;;;5036535;28;20106;-64
2022/06/30 03:08:04;;;;;;;21.38;8.23;;;27.50;99.90;;;;;;5036411;28;20083;-65
2022/06/30 03:10:31;;;;;;;20.00;5.00;;;27.60;99.90;;;;;;5036850;28;20029;-64
2022/06/30 03:12:58;;;;;;;8.73;4.05;;;27.70;99.90;;;;;;5036744;28;20025;-65
2022/06/30 03:15:25;;;;;;;11.13;3.70;;;27.60;99.90;;;;;;5036907;28;20067;-64
2022/06/30 03:17:51;;;;;;;11.40;3.28;;;27.60;99.90;;;;;;5036693;28;20024;-65
2022/06/30 03:20:18;;;;;;;10.88;3.58;;;27.60;99.90;;;;;;5036672;28;20026;-65
2022/06/30 03:22:45;;;;;;;9.20;3.38;;;27.60;99.90;;;;;;5036456;28;20075;-64
2022/06/30 03:25:11;;;;;;;8.18;4.95;;;27.70;99.90;;;;;;5035675;28;20493;-66
2022/06/30 03:27:38;;;;;;;12.40;4.70;;;27.80;99.90;;;;;;5035568;28;20022;-65
2022/06/30 03:30:05;;;;;;;13.43;4.10;;;27.80;99.90;;;;;;5048328;28;20060;-63
2022/06/30 03:32:32;;;;;;;10.82;3.40;;;27.90;99.90;;;;;;5036123;28;20086;-64
2022/06/30 03:34:59;;;;;;;7.65;4.05;;;27.90;99.90;;;;;;5050700;28;20493;-65
2022/06/30 03:37:25;;;;;;;11.52;3.55;;;28.00;99.90;;;;;;5054212;28;20052;-63
2022/06/30 03:39:52;;;;;;;13.02;3.50;;;28.10;99.90;;;;;;5054537;28;20021;-65
2022/06/30 03:42:19;;;;;;;11.23;3.63;;;28.10;99.90;;;;;;5053750;28;20105;-65
2022/06/30 03:44:45;;;;;;;6.75;3.00;;;28.10;99.90;;;;;;5055548;28;20151;-65
2022/06/30 03:47:12;;;;;;;7.47;3.30;;;28.20;99.90;;;;;;5052412;28;20029;-63
2022/06/30 03:49:39;;;;;;;7.68;3.20;;;28.20;99.90;;;;;;5055057;28;20025;-64
2022/06/30 03:52:05;;;;;;;5.80;3.03;;;28.20;99.90;;;;;;5054498;28;20080;-69
2022/06/30 03:54:32;;;;;;;7.57;2.90;;;28.30;99.90;;;;;;5054990;28;20474;-71
2022/06/30 03:56:59;;;;;;;6.78;3.10;;;28.30;99.90;;;;;;5055744;28;20063;-72
2022/06/30 03:59:26;;;;;;;15.27;3.33;;;28.30;99.90;;;;;;5055655;28;20017;-66
2022/06/30 04:01:52;;;;;;;8.70;3.35;;;28.40;99.90;;;;;;5054885;28;20032;-66
2022/06/30 04:04:19;;;;;;;5.80;2.45;;;28.60;99.90;;;;;;5054949;28;20024;-67
2022/06/30 04:06:45;;;;;;;4.65;2.45;;;28.70;99.90;;;;;;5054366;28;20481;-68
2022/06/30 04:09:12;;;;;;;4.20;2.30;;;28.70;99.90;;;;;;5054495;28;20056;-66
2022/06/30 04:11:39;;;;;;;10.65;4.85;;;28.70;99.90;;;;;;5054726;28;20017;-65
2022/06/30 04:14:07;;;;;;;18.25;6.68;;;28.70;99.90;;;;;;5054870;28;20116;-66
2022/06/30 04:16:35;;;;;;;12.95;5.40;;;28.70;99.90;;;;;;5057416;28;20025;-66
2022/06/30 04:19:02;;;;;;;8.57;3.22;;;28.80;99.90;;;;;;5075441;28;20095;-66
2022/06/30 04:21:28;;;;;;;4.65;2.38;;;28.90;99.90;;;;;;5057473;28;20482;-66
2022/06/30 04:23:55;;;;;;;6.82;3.00;;;28.90;99.90;;;;;;5052053;28;20429;-65
2022/06/30 04:26:22;;;;;;;5.22;1.60;;;29.00;99.90;;;;;;5053309;28;20029;-66
2022/06/30 04:28:48;;;;;;;10.35;3.42;;;29.00;99.90;;;;;;5054416;28;20029;-66
2022/06/30 04:34:02;;;;;;;5.50;2.70;;;29.30;99.90;;;;;;5042189;28;20493;-67
2022/06/30 04:36:29;;;;;;;6.05;2.58;;;29.40;99.90;;;;;;5051686;28;20048;-64
2022/06/30 04:38:56;;;;;;;5.50;2.53;;;29.40;99.90;;;;;;5053293;28;20082;-67
2022/06/30 04:41:25;;;;;;;4.28;1.67;;;29.40;99.90;;;;;;5050585;28;20025;-65
2022/06/30 04:44:01;;;;;;;7.97;2.33;;;29.50;99.90;;;;;;5049898;28;20033;-67
2022/06/30 04:46:28;;;;;;;2.83;1.85;;;29.50;99.90;;;;;;5049702;28;20381;-66
2022/06/30 04:48:55;;;;;;;4.05;2.13;;;29.50;99.90;;;;;;5036171;28;20106;-66
2022/06/30 04:51:22;;;;;;;6.05;3.00;;;29.40;99.90;;;;;;5053507;28;20116;-66
2022/06/30 04:53:49;;;;;;;4.88;2.33;;;29.50;99.90;;;;;;5051235;28;20080;-67
2022/06/30 04:56:17;;;;;;;7.32;3.40;;;29.60;99.90;;;;;;5033156;28;20033;-65
2022/06/30 04:58:45;;;;;;;2.67;1.90;;;29.60;99.90;;;;;;5054043;28;20013;-67
2022/06/30 05:01:12;;;;;;;8.07;2.42;;;29.60;99.90;;;;;;5054180;28;20025;-67
2022/06/30 05:03:38;;;;;;;3.47;2.05;;;29.60;99.90;;;;;;5053612;28;20028;-67
2022/06/30 05:06:06;;;;;;;5.20;2.20;;;29.70;99.90;;;;;;5052840;28;20104;-67
2022/06/30 05:08:35;;;;;;;5.10;1.88;;;29.70;99.90;;;;;;5053179;28;20573;-66
2022/06/30 05:11:02;;;;;;;5.00;1.92;;;29.70;99.90;;;;;;5053257;28;20064;-66
2022/06/30 05:13:29;;;;;;;4.28;2.03;;;29.70;99.90;;;;;;5053999;28;20078;-66
2022/06/30 05:15:56;;;;;;;5.97;2.60;;;29.80;99.90;;;;;;5035346;28;20446;-66
2022/06/30 05:18:26;;;;;;;4.75;2.00;;;30.00;99.90;;;;;;5015979;28;20108;-67
2022/06/30 05:20:54;;;;;;;3.13;1.58;;;30.20;99.90;;;;;;5033414;28;20053;-66
2022/06/30 05:23:20;;;;;;;5.95;1.75;;;30.30;99.90;;;;;;5050252;28;20059;-66
2022/06/30 05:28:37;;;;;;;3.65;1.85;;;30.40;99.90;;;;;;5053282;28;20059;-66
2022/06/30 05:31:04;;;;;;;5.78;3.20;;;30.40;99.90;;;;;;5053205;28;20033;-66
2022/06/30 05:33:31;;;;;;;7.00;3.47;;;30.40;99.90;;;;;;5044124;28;20033;-68
2022/06/30 05:35:59;;;;;;;4.32;1.63;;;30.50;99.90;;;;;;5035676;28;20037;-68
2022/06/30 05:38:25;;;;;;;3.38;1.25;;;30.50;99.90;;;;;;5033565;28;20025;-66
2022/06/30 05:40:53;;;;;;;2.00;1.42;;;30.60;99.90;;;;;;5028255;28;20482;-67
2022/06/30 05:43:20;;;;;;;3.20;1.75;;;30.60;99.90;;;;;;5053199;28;20082;-66
2022/06/30 05:45:48;;;;;;;5.60;2.13;;;30.60;99.90;;;;;;5043370;28;20567;-66
2022/06/30 05:48:15;;;;;;;5.80;3.03;;;30.60;99.90;;;;;;5034980;28;20075;-67
2022/06/30 05:50:41;;;;;;;7.32;5.20;;;30.70;99.90;;;;;;5052938;28;20036;-67
2022/06/30 05:53:08;;;;;;;3.88;1.15;;;30.60;99.90;;;;;;5053125;28;20124;-66
2022/06/30 05:55:35;;;;;;;1.60;1.05;;;30.60;99.90;;;;;;5049081;28;20428;-65
2022/06/30 05:58:03;;;;;;;5.43;3.22;;;30.60;99.90;;;;;;5053483;28;20029;-66
2022/06/30 06:00:31;;;;;;;12.80;6.45;;;30.70;99.90;;;;;;5053353;28;20041;-67
2022/06/30 06:02:59;;;;;;;7.80;4.63;;;30.70;99.90;;;;;;5053022;28;20111;-66
2022/06/30 06:05:26;;;;;;;5.60;2.45;;;30.80;99.90;;;;;;5042959;28;20033;-66
2022/06/30 06:07:52;;;;;;;5.63;2.40;;;30.80;99.90;;;;;;5056795;28;20044;-67
2022/06/30 06:10:19;;;;;;;3.25;2.20;;;31.00;99.90;;;;;;5057976;28;20027;-66
2022/06/30 06:12:46;;;;;;;3.55;1.90;;;31.00;99.90;;;;;;5056821;28;20112;-66
2022/06/30 06:15:14;;;;;;;5.30;2.17;;;31.20;99.90;;;;;;5055441;28;22144;-66
2022/06/30 06:17:42;;;;;;;4.63;3.20;;;31.30;99.90;;;;;;5056830;28;20039;-66
2022/06/30 06:20:11;;;;;;;2.58;1.73;;;31.40;99.20;;;;;;5056822;28;20025;-66
2022/06/30 06:22:38;;;;;;;3.88;1.48;;;31.20;98.20;;;;;;5056977;28;20035;-66
2022/06/30 06:25:06;;;;;;;5.75;1.58;;;31.20;98.50;;;;;;5056952;28;20036;-66
2022/06/30 06:27:34;;;;;;;7.82;1.88;;;31.00;98.10;;;;;;5057068;28;20029;-67
2022/06/30 06:30:03;;;;;;;7.93;1.70;;;30.90;98.70;;;;;;5057783;28;20060;-66
2022/06/30 06:32:30;;;;;;;4.32;2.55;;;30.90;98.00;;;;;;5057608;28;20051;-65
2022/06/30 06:35:00;;;;;;;2.55;1.23;;;30.90;98.50;;;;;;5049207;28;20038;-67
2022/06/30 06:37:27;;;;;;;2.10;1.20;;;30.90;97.90;;;;;;5037899;28;20024;-66
2022/06/30 06:39:54;;;;;;;2.08;1.30;;;30.90;97.90;;;;;;5041447;28;20021;-66
2022/06/30 06:42:21;;;;;;;2.38;1.30;;;31.10;97.90;;;;;;5057539;28;20041;-67
2022/06/30 06:44:48;;;;;;;1.75;1.20;;;30.90;97.30;;;;;;5057381;28;20020;-67
2022/06/30 06:47:16;;;;;;;3.58;1.10;;;30.90;98.10;;;;;;5057225;28;20544;-67
2022/06/30 06:49:44;;;;;;;2.80;1.17;;;31.00;97.40;;;;;;5056334;28;20059;-70
2022/06/30 06:52:12;;;;;;;3.75;1.27;;;31.20;96.10;;;;;;5056016;28;20087;-66
2022/06/30 06:54:39;;;;;;;1.98;1.25;;;31.30;95.50;;;;;;5055345;28;20017;-67
2022/06/30 06:57:06;;;;;;;3.00;1.10;;;31.30;96.40;;;;;;5056785;28;20033;-66
2022/06/30 06:59:34;;;;;;;1.85;1.00;;;31.20;95.90;;;;;;5056391;28;20021;-66
2022/06/30 07:02:01;;;;;;;3.83;1.42;;;31.10;95.90;;;;;;5038205;28;20021;-66
2022/06/30 07:04:28;;;;;;;3.38;2.30;;;31.10;96.40;;;;;;5056043;28;20025;-66
2022/06/30 07:06:55;;;;;;;3.17;1.23;;;31.20;95.70;;;;;;5056274;28;20067;-67
2022/06/30 07:09:22;;;;;;;2.25;1.40;;;31.40;95.60;;;;;;5055627;28;20381;-66
2022/06/30 07:11:49;;;;;;;2.22;1.60;;;31.50;94.70;;;;;;5035261;28;20053;-70
2022/06/30 07:14:15;;;;;;;2.15;1.45;;;31.70;95.30;;;;;;5053227;28;20029;-65
2022/06/30 07:16:42;;;;;;;2.47;1.33;;;31.80;93.70;;;;;;5049455;28;20366;-64
2022/06/30 07:19:09;;;;;;;4.95;1.63;;;31.90;95.10;;;;;;5051696;28;20104;-65
2022/06/30 07:24:07;;;;;;;4.28;1.30;;;32.00;94.40;;;;;;5050836;28;20037;-65
2022/06/30 07:26:33;;;;;;;2.75;1.70;;;31.90;93.20;;;;;;5051492;28;20616;-65
2022/06/30 07:29:00;;;;;;;1.70;1.40;;;31.90;93.20;;;;;;5038114;28;20039;-67
2022/06/30 07:31:27;;;;;;;2.78;1.40;;;31.70;93.50;;;;;;5055490;28;20025;-66
2022/06/30 07:33:54;;;;;;;1.30;1.17;;;31.30;93.70;;;;;;5054953;28;20048;-66
2022/06/30 07:36:21;;;;;;;6.20;1.63;;;31.20;94.00;;;;;;5053426;28;20045;-65
2022/06/30 07:38:49;;;;;;;4.18;1.77;;;31.10;94.20;;;;;;5055193;28;20027;-66
2022/06/30 07:41:16;;;;;;;4.50;1.60;;;31.20;94.70;;;;;;5052160;28;20019;-65
2022/06/30 07:43:43;;;;;;;3.10;1.23;;;31.30;95.20;;;;;;5055746;28;20025;-65
2022/06/30 07:46:11;;;;;;;2.92;1.70;;;31.40;94.80;;;;;;5053596;28;20024;-65
2022/06/30 07:48:38;;;;;;;5.25;2.25;;;31.40;94.60;;;;;;5048683;28;20382;-64
2022/06/30 07:51:06;;;;;;;3.58;2.17;;;31.40;94.80;;;;;;5055338;28;20104;-65
2022/06/30 07:53:32;;;;;;;7.15;2.30;;;31.40;93.90;;;;;;5054654;28;20029;-64
2022/06/30 07:55:59;;;;;;;4.82;2.72;;;31.50;94.20;;;;;;5047483;28;20053;-65
2022/06/30 07:58:26;;;;;;;26.50;16.70;;;31.50;94.40;;;;;;5053528;28;20028;-65
2022/06/30 08:00:53;;;;;;;82.05;61.80;;;31.50;94.00;;;;;;5055291;28;20546;-65
2022/06/30 08:03:20;;;;;;;25.67;18.92;;;31.40;93.50;;;;;;5054634;28;20386;-66
2022/06/30 08:05:46;;;;;;;11.27;6.88;;;31.40;94.40;;;;;;5047449;28;20061;-65
2022/06/30 08:08:13;;;;;;;38.53;24.27;;;31.40;93.80;;;;;;5038130;28;20033;-67
2022/06/30 08:10:40;;;;;;;36.60;18.33;;;31.40;92.80;;;;;;5043953;28;20021;-65
2022/06/30 08:13:06;;;;;;;22.73;13.45;;;31.40;93.90;;;;;;5054301;28;20108;-66
2022/06/30 08:15:33;;;;;;;19.73;12.80;;;31.50;93.60;;;;;;5054730;28;20083;-65
2022/06/30 08:18:04;;;;;;;8.23;5.38;;;31.50;92.30;;;;;;5035881;28;20024;-66
2022/06/30 08:20:31;;;;;;;8.25;3.40;;;31.60;92.80;;;;;;5050425;28;20089;-65
2022/06/30 08:22:58;;;;;;;5.53;2.20;;;31.70;93.10;;;;;;5052811;28;20079;-65
2022/06/30 08:25:26;;;;;;;6.30;2.22;;;31.80;93.00;;;;;;5052500;28;20052;-67
2022/06/30 08:27:53;;;;;;;5.28;1.48;;;31.90;93.30;;;;;;5051310;28;20056;-63
2022/06/30 08:30:20;;;;;;;6.35;2.20;;;31.80;92.60;;;;;;5032511;28;20032;-66
2022/06/30 08:32:47;;;;;;;4.40;2.03;;;31.80;93.70;;;;;;5053052;28;20032;-65
2022/06/30 08:35:14;;;;;;;3.42;1.70;;;31.80;93.00;;;;;;5050487;28;20128;-66
2022/06/30 08:37:41;;;;;;;3.90;2.15;;;31.70;92.00;;;;;;5051047;28;20017;-66
2022/06/30 08:42:58;;;;;;;8.07;1.80;;;31.50;92.60;;;;;;5054051;28;20091;-64
2022/06/30 08:45:28;;;;;;;5.32;2.20;;;31.60;92.70;;;;;;5036601;28;20060;-65
2022/06/30 08:47:55;;;;;;;11.43;3.60;;;31.70;93.50;;;;;;5053866;28;20107;-66
2022/06/30 08:50:22;;;;;;;10.20;2.80;;;31.90;92.90;;;;;;5053450;28;20033;-64
2022/06/30 08:52:52;;;;;;;4.70;2.10;;;31.90;93.00;;;;;;5052564;28;20040;-65
2022/06/30 08:55:24;;;;;;;2.58;1.77;;;31.90;92.40;;;;;;5053744;28;20017;-64
2022/06/30 08:57:55;;;;;;;4.53;2.80;;;31.80;91.90;;;;;;5052896;28;20033;-64
2022/06/30 09:00:21;;;;;;;8.43;2.53;;;31.90;92.50;;;;;;5032031;28;20482;-66
2022/06/30 09:02:48;;;;;;;13.20;2.72;;;31.90;92.40;;;;;;5052123;28;20037;-65
2022/06/30 09:05:15;;;;;;;3.50;2.38;;;31.80;92.10;;;;;;5036053;28;20028;-66
2022/06/30 09:07:42;;;;;;;15.35;8.73;;;31.60;92.50;;;;;;5053436;28;20025;-66
2022/06/30 09:10:09;;;;;;;11.18;5.00;;;31.50;92.60;;;;;;5053232;28;20027;-66
2022/06/30 09:12:36;;;;;;;7.53;3.63;;;31.40;92.40;;;;;;5053226;28;20036;-66
2022/06/30 09:15:06;;;;;;;4.88;2.50;;;31.30;92.40;;;;;;5051983;28;20028;-67
2022/06/30 09:17:33;;;;;;;8.57;3.30;;;31.40;92.00;;;;;;5053094;28;20024;-66
2022/06/30 09:20:01;;;;;;;11.73;5.30;;;31.40;93.00;;;;;;5035342;28;20133;-66
2022/06/30 09:22:31;;;;;;;12.85;3.90;;;31.30;92.80;;;;;;5053113;28;20356;-66
2022/06/30 09:25:02;;;;;;;8.02;3.42;;;31.40;93.10;;;;;;5054726;28;20025;-67
2022/06/30 09:27:32;;;;;;;12.90;3.55;;;31.40;92.50;;;;;;5053755;28;20036;-66
2022/06/30 09:30:04;;;;;;;9.57;3.03;;;31.30;92.60;;;;;;5054670;28;20029;-67
2022/06/30 09:32:54;;;;;;;7.80;3.10;;;31.20;93.30;;;;;;5050998;28;20032;-67
2022/06/30 09:35:26;;;;;;;12.38;3.05;;;31.30;93.00;;;;;;5049051;28;20045;-67
2022/06/30 09:38:04;;;;;;;13.02;6.15;;;31.30;91.90;;;;;;5054465;28;20024;-66
2022/06/30 09:40:34;;;;;;;10.88;4.07;;;31.30;92.70;;;;;;5050534;28;20266;-66
2022/06/30 09:43:03;;;;;;;12.00;6.72;;;31.20;93.30;;;;;;5054526;28;20512;-66
2022/06/30 09:45:49;;;;;;;17.17;6.70;;;31.20;92.70;;;;;;5054510;28;20539;-67
2022/06/30 09:48:25;;;;;;;17.42;8.75;;;31.20;93.20;;;;;;5052021;28;20032;-67
2022/06/30 09:50:58;;;;;;;19.05;10.77;;;31.20;92.70;;;;;;5051937;28;20029;-68
2022/06/30 09:53:25;;;;;;;19.23;9.18;;;31.10;92.40;;;;;;5045195;28;20029;-66
2022/06/30 09:55:52;;;;;;;27.52;13.95;;;31.10;92.70;;;;;;5053680;28;20025;-67
2022/06/30 09:58:40;;;;;;;32.28;15.73;;;31.00;92.80;;;;;;5053634;28;20127;-66
2022/06/30 10:01:08;;;;;;;24.02;11.25;;;31.00;92.80;;;;;;5045821;28;20504;-65
2022/06/30 10:03:43;;;;;;;19.50;8.38;;;31.00;92.40;;;;;;5049567;28;20056;-65
2022/06/30 10:06:13;;;;;;;15.73;9.05;;;30.90;92.90;;;;;;5048165;28;20029;-65
2022/06/30 10:08:40;;;;;;;14.27;7.10;;;30.90;92.80;;;;;;5048207;28;20033;-64
2022/06/30 10:11:10;;;;;;;17.35;8.85;;;30.80;93.00;;;;;;5050361;28;20108;-62
2022/06/30 10:13:42;;;;;;;14.55;9.10;;;30.80;93.10;;;;;;5050744;28;20094;-63
2022/06/30 10:16:12;;;;;;;20.83;10.38;;;30.80;93.30;;;;;;5050045;28;20642;-64
2022/06/30 10:18:40;;;;;;;14.68;9.57;;;30.70;92.90;;;;;;5046346;28;20018;-65
2022/06/30 10:21:08;;;;;;;19.13;10.80;;;30.70;92.90;;;;;;5051642;28;20511;-65
2022/06/30 10:23:36;;;;;;;19.25;8.82;;;30.60;92.70;;;;;;5047865;28;20474;-66
2022/06/30 10:26:03;;;;;;;21.02;11.40;;;30.60;93.10;;;;;;5048957;28;20114;-65
2022/06/30 10:28:30;;;;;;;22.30;10.10;;;30.60;93.10;;;;;;5052112;28;20487;-64
2022/06/30 10:31:10;;;;;;;22.48;12.23;;;30.50;92.20;;;;;;5051309;28;20526;-65
2022/06/30 10:33:38;;;;;;;29.35;15.43;;;30.40;92.70;;;;;;5052133;28;20348;-63
2022/06/30 10:36:14;;;;;;;54.03;34.17;;;30.40;92.90;;;;;;5050795;28;20476;-65
2022/06/30 10:38:42;;;;;;;24.30;15.07;;;30.40;92.60;;;;;;5050954;28;20075;-65
2022/06/30 10:41:11;;;;;;;24.25;12.13;;;30.40;93.20;;;;;;5049221;28;20017;-66
2022/06/30 10:44:06;;;;;;;21.73;13.05;;;30.50;93.50;;;;;;5052741;28;20512;-64
2022/06/30 10:46:35;;;;;;;25.90;15.05;;;30.50;93.90;;;;;;4969502;28;20110;-67
2022/06/30 10:49:09;;;;;;;33.75;15.95;;;30.40;93.70;;;;;;4971600;28;20103;-68
2022/06/30 10:51:36;;;;;;;32.53;17.33;;;30.40;93.70;;;;;;4965753;28;20042;-65
2022/06/30 10:54:02;;;;;;;42.40;21.63;;;30.40;94.10;;;;;;4973138;28;20027;-64
2022/06/30 10:56:49;;;;;;;29.63;17.25;;;30.40;94.60;;;;;;4974581;28;20034;-65
2022/06/30 10:59:17;;;;;;;36.05;19.10;;;30.40;94.00;;;;;;4969441;28;20035;-67
2022/06/30 11:02:14;;;;;;;35.65;18.08;;;30.40;94.40;;;;;;4974804;28;20078;-66
2022/06/30 11:04:43;;;;;;;33.17;18.52;;;30.40;94.50;;;;;;4973571;28;20559;-66
2022/06/30 11:07:11;;;;;;;32.38;17.75;;;30.40;94.80;;;;;;4974124;28;20456;-65
2022/06/30 11:09:47;;;;;;;38.00;18.55;;;30.30;95.00;;;;;;4980465;28;20040;-65
2022/06/30 11:12:15;;;;;;;37.42;19.88;;;30.30;95.40;;;;;;4970999;28;20050;-65
2022/06/30 11:14:54;;;;;;;40.92;20.10;;;30.30;95.70;;;;;;4975097;28;20034;-65
2022/06/30 11:17:23;;;;;;;41.58;20.02;;;30.30;95.70;;;;;;4972771;28;20035;-65
2022/06/30 11:20:08;;;;;;;41.92;19.90;;;30.20;95.40;;;;;;4969044;28;20066;-65
2022/06/30 11:22:36;;;;;;;41.08;20.33;;;30.10;96.10;;;;;;4983873;28;20095;-64
2022/06/30 11:25:06;;;;;;;40.50;20.05;;;30.10;96.00;;;;;;5052524;28;20107;-65
2022/06/30 11:27:34;;;;;;;40.83;20.38;;;30.10;96.40;;;;;;5056339;28;20020;-65
2022/06/30 11:30:06;;;;;;;45.72;22.30;;;30.10;96.40;;;;;;5051806;28;20029;-65
2022/06/30 11:32:34;;;;;;;49.50;22.75;;;30.10;96.50;;;;;;5055880;28;20124;-65
2022/06/30 11:35:01;;;;;;;56.83;25.15;;;30.00;96.90;;;;;;5055343;28;20051;-65
2022/06/30 11:37:30;;;;;;;57.67;27.63;;;30.00;96.90;;;;;;5049432;28;20029;-66
2022/06/30 11:40:01;;;;;;;61.15;28.13;;;29.90;96.90;;;;;;5053557;28;20482;-66
2022/06/30 11:42:28;;;;;;;51.97;27.77;;;30.00;97.10;;;;;;5041233;28;20036;-67
2022/06/30 11:44:55;;;;;;;52.25;26.05;;;30.00;97.10;;;;;;5054598;28;20075;-64
2022/06/30 11:47:23;;;;;;;64.95;29.35;;;29.90;97.40;;;;;;5054957;28;20106;-69
2022/06/30 11:49:52;;;;;;;54.33;30.23;;;30.00;97.60;;;;;;5056084;28;20114;-67
2022/06/30 11:52:23;;;;;;;52.53;27.75;;;30.00;97.90;;;;;;5050665;28;20047;-67
2022/06/30 11:55:12;;;;;;;52.75;29.60;;;29.90;97.60;;;;;;5055697;28;20025;-66
2022/06/30 11:57:42;;;;;;;62.90;37.65;;;29.90;97.20;;;;;;5054260;28;20488;-68
2022/06/30 12:00:12;;;;;;;62.55;34.85;;;29.70;97.30;;;;;;5055436;28;20442;-69
2022/06/30 12:02:41;;;;;;;61.70;32.72;;;29.80;98.30;;;;;;5054590;28;20094;-67
2022/06/30 12:05:10;;;;;;;51.42;30.42;;;29.70;97.60;;;;;;5054890;28;20385;-64
2022/06/30 12:07:38;;;;;;;51.97;30.25;;;29.70;97.70;;;;;;5054516;28;20083;-64
2022/06/30 12:10:13;;;;;;;50.13;28.75;;;29.70;98.20;;;;;;5054829;28;20029;-66
2022/06/30 12:12:40;;;;;;;53.90;28.50;;;29.70;98.70;;;;;;5054821;28;20466;-64
2022/06/30 12:15:12;;;;;;;55.00;28.38;;;29.70;98.60;;;;;;5054458;28;20017;-63
2022/06/30 12:17:42;;;;;;;;;;;29.80;98.50;;;;;;5053339;28;20029;-65
2022/06/30 12:20:11;;;;;;;60.00;31.50;;;29.70;97.90;;;;;;4972128;28;19906;-63
2022/06/30 12:22:45;;;;;;;66.10;33.38;;;29.60;98.80;;;;;;4974039;28;20137;-64
2022/06/30 12:25:16;;;;;;;63.22;31.15;;;29.60;98.70;;;;;;4973642;28;20051;-64
2022/06/30 12:27:47;;;;;;;73.60;32.45;;;29.60;99.30;;;;;;4973402;28;20069;-63
2022/06/30 12:30:18;;;;;;;72.55;30.92;;;29.50;98.30;;;;;;4973732;28;20381;-64
2022/06/30 12:32:56;;;;;;;60.35;31.05;;;29.50;98.10;;;;;;4973621;28;20034;-65
2022/06/30 12:35:26;;;;;;;63.72;31.23;;;29.50;98.70;;;;;;4973470;28;20039;-65
2022/06/30 12:37:53;;;;;;;56.20;29.52;;;29.40;98.40;;;;;;4973657;28;20098;-65
2022/06/30 12:40:23;;;;;;;56.90;29.20;;;29.40;98.80;;;;;;4973407;28;20062;-65
2022/06/30 12:42:52;;;;;;;69.03;31.48;;;29.40;99.40;;;;;;4973411;28;20042;-64
2022/06/30 12:45:48;;;;;;;66.93;32.47;;;29.50;99.30;;;;;;4973342;28;20031;-66
2022/06/30 12:48:43;;;;;;;71.20;32.35;;;29.50;99.20;;;;;;4972801;28;20496;-66
2022/06/30 12:51:12;;;;;;;59.00;31.35;;;29.40;99.90;;;;;;4971457;28;20089;-66
2022/06/30 12:53:40;;;;;;;59.17;32.80;;;29.30;99.90;;;;;;4972821;28;20038;-66
2022/06/30 12:56:11;;;;;;;64.25;30.83;;;29.30;99.90;;;;;;4973226;28;20058;-65
2022/06/30 12:58:47;;;;;;;63.47;33.17;;;29.30;99.90;;;;;;4972872;28;20536;-64
2022/06/30 13:01:17;;;;;;;58.53;31.52;;;29.30;99.90;;;;;;4972758;28;20066;-64
2022/06/30 13:03:51;;;;;;;57.25;31.52;;;29.20;99.90;;;;;;4972680;28;20094;-64